Time;durP1;ratioP1;P1;durP2;ratioP2;P2;SDS_P1;SDS_P2;PMS_P1;PMS_P2;Temp;Humidity;BMP_temperature;BMP_pressure;BME280_temperature;BME280_humidity;BME280_pressure;Samples;Min_cycle;Max_cycle;Signal;HPM_P1;HPM_P2
2024/01/14 00:00:56;;;;;;;44.92;26.13;;;;;;;2.15;57.65;100833.34;5092210;28;20024;-75
2024/01/14 00:03:24;;;;;;;50.67;26.02;;;;;;;2.22;57.86;100833.94;5096910;28;20031;-76
2024/01/14 00:05:50;;;;;;;47.22;25.73;;;;;;;2.17;57.51;100815.53;5098416;28;20031;-76
2024/01/14 00:08:15;;;;;;;52.28;26.52;;;;;;;2.07;57.69;100819.56;5093094;28;20024;-75
2024/01/14 00:10:41;;;;;;;50.42;26.33;;;;;;;1.99;57.88;100795.13;5091338;28;20028;-75
2024/01/14 00:13:06;;;;;;;49.55;27.08;;;;;;;2.03;57.95;100812.66;5091412;28;20036;-74
2024/01/14 00:15:32;;;;;;;45.50;25.88;;;;;;;2.04;57.96;100819.69;5090529;28;20452;-75
2024/01/14 00:17:57;;;;;;;45.83;26.38;;;;;;;2.02;58.18;100812.69;5091674;28;20035;-76
2024/01/14 00:20:23;;;;;;;47.28;26.60;;;;;;;2.00;57.88;100810.13;5091325;28;20377;-74
2024/01/14 00:22:48;;;;;;;48.60;26.42;;;;;;;1.79;57.86;100781.88;5091020;28;20028;-76
2024/01/14 00:25:15;;;;;;;50.83;26.27;;;;;;;1.96;57.93;100816.47;5090942;28;20024;-75
2024/01/14 00:27:40;;;;;;;47.20;27.73;;;;;;;1.90;58.47;100815.88;5091008;28;20090;-74
2024/01/14 00:30:06;;;;;;;56.78;28.45;;;;;;;1.79;58.64;100799.56;5090934;28;21092;-73
2024/01/14 00:32:32;;;;;;;57.55;29.60;;;;;;;1.92;58.60;100814.91;5090901;28;20030;-74
2024/01/14 00:34:58;;;;;;;65.45;30.17;;;;;;;1.86;58.48;100814.31;5090662;28;20117;-74
2024/01/14 00:37:24;;;;;;;58.20;31.80;;;;;;;1.85;58.67;100808.13;5090786;28;20043;-74
2024/01/14 00:39:50;;;;;;;60.97;33.75;;;;;;;1.72;58.57;100780.41;5090429;28;20028;-76
2024/01/14 00:42:16;;;;;;;62.40;33.75;;;;;;;1.88;58.81;100802.69;5091972;28;20026;-75
2024/01/14 00:44:42;;;;;;;83.05;34.28;;;;;;;1.77;58.79;100781.09;5091090;28;20028;-75
2024/01/14 00:47:08;;;;;;;64.22;35.17;;;;;;;1.90;58.93;100827.34;5090876;28;20075;-75
2024/01/14 00:49:33;;;;;;;67.57;33.70;;;;;;;1.92;58.84;100822.88;5093975;28;20066;-73
2024/01/14 00:51:59;;;;;;;69.00;35.38;;;;;;;1.97;58.92;100820.88;5093458;28;20031;-74
2024/01/14 00:54:25;;;;;;;63.60;33.47;;;;;;;2.02;58.87;100818.88;5090336;28;20024;-74
2024/01/14 00:56:50;;;;;;;57.83;33.60;;;;;;;2.03;58.74;100822.38;5087604;28;20105;-73
2024/01/14 00:59:16;;;;;;;67.78;34.67;;;;;;;2.04;58.65;100822.34;5090236;28;20024;-74
2024/01/14 01:01:41;;;;;;;61.38;33.90;;;;;;;2.01;58.51;100808.34;5089785;28;20048;-77
2024/01/14 01:04:07;;;;;;;62.67;35.17;;;;;;;1.86;58.66;100798.41;5089904;28;20571;-75
2024/01/14 01:06:32;;;;;;;70.88;35.08;;;;;;;1.98;58.72;100817.31;5090163;28;20093;-75
2024/01/14 01:08:59;;;;;;;67.32;37.40;;;;;;;1.98;58.69;100819.94;5089899;28;20920;-76
2024/01/14 01:11:25;;;;;;;72.38;35.05;;;;;;;1.99;58.65;100823.44;5090046;28;20035;-76
2024/01/14 01:13:50;;;;;;;66.22;36.42;;;;;;;1.91;58.33;100802.56;5090223;28;20032;-75
2024/01/14 01:16:16;;;;;;;67.72;37.13;;;;;;;1.99;58.48;100823.44;5089777;28;20012;-76
2024/01/14 01:18:41;;;;;;;67.45;35.88;;;;;;;1.99;58.49;100815.47;5089741;28;20070;-74
2024/01/14 01:21:07;;;;;;;57.08;34.20;;;;;;;1.92;58.63;100812.25;5089811;28;20020;-76
2024/01/14 01:23:32;;;;;;;72.28;36.88;;;;;;;1.87;58.71;100803.63;5087550;28;20062;-75
2024/01/14 01:25:58;;;;;;;74.10;35.67;;;;;;;1.94;58.32;100799.78;5090418;28;20024;-74
2024/01/14 01:28:23;;;;;;;63.67;35.90;;;;;;;1.77;58.49;100806.75;5090947;28;20024;-75
2024/01/14 01:30:49;;;;;;;74.45;37.10;;;;;;;1.71;58.78;100793.75;5090317;28;20028;-77
2024/01/14 01:33:14;;;;;;;68.72;37.67;;;;;;;1.84;58.83;100816.13;5090169;28;20115;-75
2024/01/14 01:35:40;;;;;;;77.38;39.00;;;;;;;1.77;58.92;100802.31;5089932;28;20144;-76
2024/01/14 01:38:05;;;;;;;73.35;41.55;;;;;;;1.69;58.58;100791.16;5097189;28;20381;-75
2024/01/14 01:40:31;;;;;;;79.05;42.08;;;;;;;1.74;58.63;100807.75;5096132;28;20439;-74
2024/01/14 01:42:57;;;;;;;75.97;40.40;;;;;;;1.80;58.55;100801.31;5089763;28;20035;-76
2024/01/14 01:45:22;;;;;;;74.82;38.38;;;;;;;1.80;58.62;100799.53;5089075;28;20411;-75
2024/01/14 01:47:48;;;;;;;77.35;38.90;;;;;;;1.75;58.57;100784.72;5089342;28;20067;-76
2024/01/14 01:50:13;;;;;;;75.95;36.30;;;;;;;1.69;58.44;100769.94;5089441;28;20032;-75
2024/01/14 01:52:40;;;;;;;70.82;37.40;;;;;;;1.66;58.31;100754.16;5089070;28;20356;-74
2024/01/14 01:55:06;;;;;;;80.63;38.40;;;;;;;1.69;58.71;100769.94;5089242;28;20086;-75
2024/01/14 01:57:33;;;;;;;72.80;38.28;;;;;;;1.54;58.71;100737.00;5089152;28;20081;-75
2024/01/14 01:59:59;;;;;;;69.55;36.47;;;;;;;1.61;58.58;100734.97;5089144;28;20036;-74
2024/01/14 02:02:25;;;;;;;70.47;36.83;;;;;;;1.56;58.48;100732.50;5089122;28;20024;-77
2024/01/14 02:04:51;;;;;;;59.28;33.72;;;;;;;1.78;58.74;100772.19;5089055;28;20032;-74
2024/01/14 02:07:19;;;;;;;68.38;37.30;;;;;;;1.80;58.40;100759.75;5088631;28;20016;-76
2024/01/14 02:09:45;;;;;;;67.88;36.92;;;;;;;1.81;58.54;100753.50;5089005;28;20055;-74
2024/01/14 02:12:11;;;;;;;76.93;35.92;;;;;;;1.78;58.39;100743.03;5088846;28;20475;-77
2024/01/14 02:14:36;;;;;;;67.60;37.28;;;;;;;1.70;58.24;100729.25;5088280;28;20036;-74
2024/01/14 02:17:02;;;;;;;66.32;40.47;;;;;;;1.53;58.37;100742.34;5088830;28;20157;-75
2024/01/14 02:19:27;;;;;;;76.03;42.15;;;;;;;1.50;58.72;100727.44;5088584;28;20077;-74
2024/01/14 02:22:02;;;;;;;76.82;43.50;;;;;;;1.44;59.08;100721.53;5089047;28;20104;-74
2024/01/14 02:24:31;;;;;;;74.82;41.78;;;;;;;1.22;59.28;100699.56;5089555;28;20042;-75
2024/01/14 02:26:57;;;;;;;82.90;46.25;;;;;;;1.37;59.39;100717.47;5093147;28;20047;-74
2024/01/14 02:29:23;;;;;;;80.93;45.38;;;;;;;1.40;59.61;100702.28;5091859;28;20043;-76
2024/01/14 02:31:49;;;;;;;74.53;42.85;;;;;;;1.44;59.18;100706.50;5088634;28;20031;-75
2024/01/14 02:34:15;;;;;;;76.18;43.50;;;;;;;1.28;59.45;100700.16;5088084;28;20427;-76
2024/01/14 02:36:41;;;;;;;83.00;43.55;;;;;;;0.97;59.72;100663.50;5087094;28;20032;-75
2024/01/14 02:39:06;;;;;;;72.95;39.85;;;;;;;1.19;59.77;100694.38;5088192;28;20032;-74
2024/01/14 02:41:33;;;;;;;69.38;36.72;;;;;;;1.36;60.08;100707.78;5088148;28;20062;-76
2024/01/14 02:43:58;;;;;;;78.75;39.00;;;;;;;1.30;59.85;100708.91;5085925;28;20097;-75
2024/01/14 02:46:24;;;;;;;68.93;38.72;;;;;;;1.36;60.21;100706.00;5088088;28;20024;-74
2024/01/14 02:48:50;;;;;;;56.97;34.17;;;;;;;1.28;59.96;100676.31;5088168;28;20111;-77
2024/01/14 02:51:15;;;;;;;57.53;34.40;;;;;;;1.44;59.24;100701.22;5087803;28;20472;-75
2024/01/14 02:53:42;;;;;;;60.28;33.42;;;;;;;1.12;59.60;100655.84;5088197;28;20035;-74
2024/01/14 02:56:10;;;;;;;58.95;32.38;;;;;;;1.36;59.76;100689.22;5087983;28;20024;-75
2024/01/14 02:58:36;;;;;;;58.78;33.65;;;;;;;1.41;59.53;100697.81;5088381;28;20144;-73
2024/01/14 03:01:01;;;;;;;53.40;31.45;;;;;;;1.43;59.38;100698.66;5088142;28;20020;-73
2024/01/14 03:03:27;;;;;;;63.70;32.13;;;;;;;1.51;59.25;100701.81;5087801;28;20032;-75
2024/01/14 03:05:52;;;;;;;74.88;33.22;;;;;;;1.56;59.09;100710.44;5088517;28;20114;-75
2024/01/14 03:08:18;;;;;;;51.72;30.80;;;;;;;1.57;58.89;100706.84;5087849;28;20028;-74
2024/01/14 03:10:44;;;;;;;69.95;31.42;;;;;;;1.63;58.90;100712.75;5088530;28;20031;-75
2024/01/14 03:13:10;;;;;;;58.70;29.98;;;;;;;1.49;58.82;100679.84;5088216;28;20032;-75
2024/01/14 03:15:35;;;;;;;56.50;30.98;;;;;;;1.64;58.60;100708.31;5095371;28;20097;-74
2024/01/14 03:18:00;;;;;;;66.32;31.77;;;;;;;1.63;58.40;100706.59;5093271;28;20026;-77
2024/01/14 03:20:27;;;;;;;63.80;31.67;;;;;;;1.53;58.50;100707.91;5087990;28;20403;-76
2024/01/14 03:22:53;;;;;;;49.72;29.02;;;;;;;1.34;58.62;100699.03;5087988;28;20059;-75
2024/01/14 03:25:18;;;;;;;57.13;32.38;;;;;;;1.46;59.03;100703.81;5087915;28;20381;-76
2024/01/14 03:27:44;;;;;;;59.53;35.20;;;;;;;1.41;59.13;100684.59;5085177;28;20044;-76
2024/01/14 03:30:10;;;;;;;56.83;32.33;;;;;;;1.49;58.79;100683.34;5087376;28;20035;-74
2024/01/14 03:32:36;;;;;;;63.85;31.58;;;;;;;1.53;58.84;100690.22;5087660;28;20046;-75
2024/01/14 03:35:01;;;;;;;53.95;31.50;;;;;;;1.52;58.70;100683.22;5087105;28;20056;-74
2024/01/14 03:37:27;;;;;;;66.40;33.80;;;;;;;1.35;58.73;100647.75;5087476;28;20028;-75
2024/01/14 03:39:53;;;;;;;54.35;30.42;;;;;;;1.41;58.53;100688.09;5087554;28;20113;-76
2024/01/14 03:42:18;;;;;;;61.70;35.28;;;;;;;1.40;58.80;100678.44;5087680;28;20740;-73
2024/01/14 03:44:44;;;;;;;60.13;29.98;;;;;;;1.36;58.85;100668.03;5087536;28;20028;-74
2024/01/14 03:47:09;;;;;;;46.95;28.02;;;;;;;1.40;58.97;100673.16;5087430;28;20077;-74
2024/01/14 03:49:35;;;;;;;49.17;28.55;;;;;;;1.29;59.12;100661.25;5087652;28;20107;-74
2024/01/14 03:52:00;;;;;;;52.03;30.35;;;;;;;1.24;59.01;100671.19;5087542;28;20077;-74
2024/01/14 03:54:26;;;;;;;58.80;29.38;;;;;;;1.28;59.09;100665.72;5088006;28;20032;-73
2024/01/14 03:56:51;;;;;;;48.90;28.50;;;;;;;1.22;58.90;100668.63;5088000;28;20058;-74
2024/01/14 03:59:17;;;;;;;51.63;28.75;;;;;;;1.32;59.01;100674.38;5088116;28;20020;-75
2024/01/14 04:01:45;;;;;;;44.75;25.88;;;;;;;1.30;58.77;100666.50;5086443;28;20135;-74
2024/01/14 04:04:11;;;;;;;49.45;27.92;;;;;;;1.32;59.01;100666.44;5094341;28;20039;-78
2024/01/14 04:06:36;;;;;;;53.17;29.98;;;;;;;1.39;58.94;100659.94;5095368;28;20024;-74
2024/01/14 04:09:02;;;;;;;47.05;27.52;;;;;;;1.49;58.91;100661.28;5092243;28;20566;-73
2024/01/14 04:11:28;;;;;;;58.58;28.02;;;;;;;1.20;58.60;100628.09;5090270;28;20507;-76
2024/01/14 04:13:53;;;;;;;51.70;28.85;;;;;;;1.41;58.54;100651.00;5087970;28;20032;-73
2024/01/14 04:16:19;;;;;;;55.17;28.10;;;;;;;1.42;58.33;100641.25;5087536;28;20036;-73
2024/01/14 04:18:45;;;;;;;52.58;27.13;;;;;;;1.45;58.56;100654.38;5086258;28;20063;-75
2024/01/14 04:21:24;;;;;;;46.42;26.00;;;;;;;1.43;58.17;100635.91;5087287;28;20051;-77
2024/01/14 04:23:50;;;;;;;46.85;25.58;;;;;;;1.34;58.06;100630.16;5085942;28;20028;-75
2024/01/14 04:26:22;;;;;;;45.33;27.17;;;;;;;1.35;58.29;100634.50;5087379;28;20423;-76
2024/01/14 04:28:52;;;;;;;58.95;29.98;;;;;;;1.48;58.34;100639.22;5086881;28;20072;-74
2024/01/14 04:31:18;;;;;;;53.22;28.83;;;;;;;1.33;58.53;100604.59;5087385;28;20071;-74
2024/01/14 04:33:45;;;;;;;50.60;27.70;;;;;;;1.60;58.38;100632.50;5086580;28;20025;-76
2024/01/14 04:36:10;;;;;;;49.15;27.77;;;;;;;1.63;57.94;100616.47;5087096;28;20139;-74
2024/01/14 04:38:36;;;;;;;48.63;27.70;;;;;;;1.56;57.66;100599.13;5087171;28;20189;-77
2024/01/14 04:41:02;;;;;;;48.65;27.20;;;;;;;1.80;57.30;100634.28;5088150;28;20048;-77
2024/01/14 04:43:28;;;;;;;43.97;25.90;;;;;;;1.84;57.37;100631.41;5088571;28;20573;-74
2024/01/14 04:45:54;;;;;;;50.78;26.02;;;;;;;1.84;57.13;100623.44;5088902;28;20043;-75
2024/01/14 04:48:19;;;;;;;51.67;28.55;;;;;;;1.85;57.01;100617.22;5088609;28;20028;-75
2024/01/14 04:50:45;;;;;;;48.67;28.08;;;;;;;1.87;57.14;100644.50;5088526;28;20476;-75
2024/01/14 04:53:11;;;;;;;54.78;28.77;;;;;;;1.90;57.01;100641.72;5090380;28;20032;-75
2024/01/14 04:55:37;;;;;;;45.85;25.80;;;;;;;1.71;56.96;100593.16;5092237;28;20040;-76
2024/01/14 04:58:03;;;;;;;48.40;25.63;;;;;;;1.94;56.51;100632.72;5096605;28;20101;-77
2024/01/14 05:00:29;;;;;;;39.90;23.65;;;;;;;1.96;56.47;100635.28;5087481;28;20032;-75
2024/01/14 05:02:55;;;;;;;51.42;25.75;;;;;;;1.96;56.43;100632.63;5087969;28;20051;-74
2024/01/14 05:05:20;;;;;;;53.28;28.45;;;;;;;1.95;56.18;100634.44;5088057;28;20048;-75
2024/01/14 05:07:46;;;;;;;61.85;30.35;;;;;;;1.95;56.26;100638.88;5087903;28;20070;-74
2024/01/14 05:10:11;;;;;;;53.88;30.02;;;;;;;1.86;55.90;100613.66;5089415;28;20040;-74
2024/01/14 05:12:37;;;;;;;46.22;26.52;;;;;;;2.06;55.86;100632.13;5089640;28;20032;-74
2024/01/14 05:15:03;;;;;;;44.95;25.67;;;;;;;1.91;55.69;100638.16;5090213;28;20031;-75
2024/01/14 05:17:29;;;;;;;45.25;25.33;;;;;;;1.76;55.84;100619.44;5090413;28;20116;-75
2024/01/14 05:19:55;;;;;;;44.78;23.33;;;;;;;1.89;55.62;100639.16;5090255;28;20112;-76
2024/01/14 05:22:20;;;;;;;41.30;24.23;;;;;;;1.71;55.95;100624.94;5090038;28;20453;-75
2024/01/14 05:24:46;;;;;;;42.83;23.23;;;;;;;1.73;56.00;100625.72;5090060;28;20354;-74
2024/01/14 05:27:13;;;;;;;37.05;22.75;;;;;;;1.62;55.83;100585.59;5088403;28;20031;-74
2024/01/14 05:29:43;;;;;;;66.53;32.10;;;;;;;1.64;55.50;100592.56;5089947;28;20031;-74
2024/01/14 05:32:14;;;;;;;57.00;27.92;;;;;;;1.78;55.45;100621.06;5090522;28;20028;-74
2024/01/14 05:34:41;;;;;;;52.22;23.65;;;;;;;1.75;55.56;100630.94;5090570;28;20063;-75
2024/01/14 05:37:07;;;;;;;48.60;23.50;;;;;;;1.76;55.30;100625.59;5090552;28;20024;-74
2024/01/14 05:39:35;;;;;;;37.60;22.85;;;;;;;1.68;55.49;100614.50;5087440;28;20035;-74
2024/01/14 05:42:01;;;;;;;37.03;22.45;;;;;;;1.65;55.64;100618.09;5090129;28;20020;-73
2024/01/14 05:44:27;;;;;;;42.08;24.55;;;;;;;1.57;55.96;100601.69;5089830;28;20032;-76
2024/01/14 05:46:53;;;;;;;44.42;26.60;;;;;;;1.64;56.08;100605.81;5089011;28;20035;-74
2024/01/14 05:49:20;;;;;;;54.17;27.67;;;;;;;1.74;56.01;100602.75;5088453;28;20024;-76
2024/01/14 05:51:46;;;;;;;47.05;26.67;;;;;;;1.66;55.73;100589.81;5087722;28;20034;-77
2024/01/14 05:54:12;;;;;;;51.28;24.80;;;;;;;1.75;55.58;100600.00;5089457;28;20020;-76
2024/01/14 05:56:37;;;;;;;53.03;25.50;;;;;;;1.77;55.51;100574.31;5089052;28;20097;-76
2024/01/14 05:59:03;;;;;;;51.47;24.85;;;;;;;1.82;55.16;100598.81;5089096;28;20039;-76
2024/01/14 06:01:29;;;;;;;59.90;25.17;;;;;;;1.90;55.31;100598.44;5089143;28;20027;-76
2024/01/14 06:03:55;;;;;;;51.03;26.88;;;;;;;1.96;55.09;100595.50;5089026;28;20055;-76
2024/01/14 06:06:20;;;;;;;56.20;29.00;;;;;;;2.00;54.93;100597.06;5088961;28;20111;-76
2024/01/14 06:08:46;;;;;;;76.28;28.85;;;;;;;1.81;54.89;100557.31;5089059;28;20469;-76
2024/01/14 06:11:13;;;;;;;62.83;31.08;;;;;;;1.93;54.52;100571.78;5088709;28;20055;-74
2024/01/14 06:13:39;;;;;;;74.20;37.65;;;;;;;2.01;54.54;100565.19;5088676;28;20039;-77
2024/01/14 06:16:05;;;;;;;122.95;62.10;;;;;;;2.00;54.78;100563.47;5089183;28;20120;-76
2024/01/14 06:18:30;;;;;;;108.32;36.67;;;;;;;1.94;54.54;100555.81;5089309;28;20488;-74
2024/01/14 06:20:59;;;;;;;71.82;31.08;;;;;;;2.14;54.70;100579.56;5087878;28;20067;-76
2024/01/14 06:23:25;;;;;;;92.82;34.28;;;;;;;2.25;54.77;100595.00;5089760;28;20073;-74
2024/01/14 06:25:51;;;;;;;95.97;34.22;;;;;;;2.28;54.78;100591.31;5087920;28;20020;-76
2024/01/14 06:28:17;;;;;;;66.55;35.17;;;;;;;2.32;54.64;100596.44;5091494;28;20115;-76
2024/01/14 06:30:42;;;;;;;79.47;37.92;;;;;;;2.01;54.78;100543.97;5093511;28;20056;-75
2024/01/14 06:33:09;;;;;;;77.75;37.40;;;;;;;2.36;54.94;100591.81;5089269;28;20103;-73
2024/01/14 06:35:35;;;;;;;87.63;40.55;;;;;;;2.28;55.03;100593.97;5088336;28;20050;-74
2024/01/14 06:38:00;;;;;;;78.78;39.40;;;;;;;2.33;55.33;100573.38;5087682;28;20032;-76
2024/01/14 06:40:26;;;;;;;116.47;43.97;;;;;;;2.29;54.94;100547.97;5087689;28;20127;-75
2024/01/14 06:42:52;;;;;;;105.13;48.17;;;;;;;2.45;55.15;100575.44;5087688;28;20027;-75
2024/01/14 06:45:17;;;;;;;94.20;44.83;;;;;;;2.48;54.88;100575.28;5087700;28;20411;-73
2024/01/14 06:47:43;;;;;;;88.93;46.28;;;;;;;2.47;54.95;100585.06;5087439;28;20430;-73
2024/01/14 06:50:10;;;;;;;104.50;46.03;;;;;;;2.54;55.03;100581.16;5067797;28;20070;-74
2024/01/14 06:52:37;;;;;;;96.53;47.30;;;;;;;2.40;54.84;100556.25;5087646;28;20043;-75
2024/01/14 06:55:06;;;;;;;90.65;44.80;;;;;;;2.57;54.96;100577.50;5087457;28;20032;-74
2024/01/14 06:57:34;;;;;;;89.93;44.65;;;;;;;2.63;54.67;100575.41;5087492;28;20499;-73
2024/01/14 07:00:04;;;;;;;104.45;47.33;;;;;;;2.66;54.49;100561.97;5086545;28;20046;-74
2024/01/14 07:02:30;;;;;;;86.88;43.28;;;;;;;2.74;54.71;100572.22;5086298;28;20381;-76
2024/01/14 07:04:55;;;;;;;84.55;40.25;;;;;;;2.74;54.75;100565.13;5088358;28;20023;-73
2024/01/14 07:07:21;;;;;;;75.07;39.40;;;;;;;2.71;54.36;100575.03;5087978;28;20020;-75
2024/01/14 07:09:47;;;;;;;88.90;43.50;;;;;;;2.77;54.59;100566.75;5088413;28;20027;-77
2024/01/14 07:12:12;;;;;;;88.22;45.95;;;;;;;2.81;54.58;100563.03;5088301;28;20067;-76
2024/01/14 07:14:38;;;;;;;86.28;44.53;;;;;;;2.80;54.56;100544.50;5088632;28;20064;-77
2024/01/14 07:17:04;;;;;;;89.82;46.35;;;;;;;2.99;54.50;100562.09;5097974;28;20043;-75
2024/01/14 07:19:29;;;;;;;78.57;38.75;;;;;;;2.96;54.02;100553.41;5093885;28;20020;-75
2024/01/14 07:21:56;;;;;;;89.38;39.50;;;;;;;3.06;53.58;100562.59;5087214;28;20032;-75
2024/01/14 07:24:22;;;;;;;71.97;39.35;;;;;;;2.98;53.42;100520.50;5087420;28;20039;-75
2024/01/14 07:26:47;;;;;;;76.07;37.30;;;;;;;3.23;53.21;100541.34;5086593;28;20036;-75
2024/01/14 07:29:13;;;;;;;69.90;36.92;;;;;;;3.27;52.78;100525.13;5087303;28;20569;-77
2024/01/14 07:31:39;;;;;;;66.93;32.30;;;;;;;3.34;52.09;100535.44;5087345;28;20063;-75
2024/01/14 07:34:04;;;;;;;69.15;33.38;;;;;;;3.23;52.29;100523.59;5086952;28;20067;-79
2024/01/14 07:36:30;;;;;;;52.95;26.98;;;;;;;3.11;51.61;100510.97;5086824;28;20026;-76
2024/01/14 07:38:58;;;;;;;56.88;29.27;;;;;;;2.99;51.48;100493.00;5087062;28;20020;-74
2024/01/14 07:41:24;;;;;;;53.10;27.08;;;;;;;3.13;51.79;100516.19;5087055;28;20024;-77
2024/01/14 07:43:50;;;;;;;62.03;28.40;;;;;;;3.10;51.69;100511.91;5067767;28;20132;-73
2024/01/14 07:46:16;;;;;;;48.90;25.48;;;;;;;3.18;51.93;100517.66;5085643;28;20650;-77
2024/01/14 07:48:42;;;;;;;55.17;24.67;;;;;;;3.08;51.77;100510.25;5087096;28;20127;-75
2024/01/14 07:51:08;;;;;;;45.88;25.10;;;;;;;3.14;51.52;100523.22;5086903;28;20660;-73
2024/01/14 07:53:34;;;;;;;49.60;24.88;;;;;;;3.25;51.41;100511.06;5087707;28;20031;-72
2024/01/14 07:56:01;;;;;;;45.75;23.25;;;;;;;3.28;51.39;100516.22;5086618;28;20148;-74
2024/01/14 07:58:27;;;;;;;44.15;24.75;;;;;;;3.26;51.46;100520.78;5087702;28;20043;-75
2024/01/14 08:00:53;;;;;;;48.05;25.00;;;;;;;3.30;51.05;100518.81;5087615;28;20605;-73
2024/01/14 08:03:18;;;;;;;43.75;24.85;;;;;;;3.26;51.28;100506.63;5088512;28;20036;-74
2024/01/14 08:05:44;;;;;;;55.13;25.38;;;;;;;3.33;51.45;100509.81;5092545;28;20027;-73
2024/01/14 08:08:09;;;;;;;51.33;24.38;;;;;;;3.21;50.88;100495.41;5089223;28;20065;-75
2024/01/14 08:10:35;;;;;;;41.42;22.63;;;;;;;3.25;51.14;100484.50;5086379;28;20017;-73
2024/01/14 08:13:01;;;;;;;46.42;25.73;;;;;;;3.36;51.34;100510.53;5088647;28;20063;-77
2024/01/14 08:15:27;;;;;;;46.33;25.05;;;;;;;3.42;51.22;100504.88;5090707;28;20480;-74
2024/01/14 08:17:53;;;;;;;49.33;26.08;;;;;;;3.39;51.53;100485.56;5090791;28;20020;-74
2024/01/14 08:20:19;;;;;;;42.42;24.83;;;;;;;3.46;51.41;100501.09;5090424;28;20057;-74
2024/01/14 08:22:44;;;;;;;56.30;28.73;;;;;;;3.36;51.31;100475.97;5090597;28;20110;-73
2024/01/14 08:25:10;;;;;;;49.40;24.65;;;;;;;3.65;51.36;100493.84;5089820;28;20028;-79
2024/01/14 08:27:38;;;;;;;46.45;26.13;;;;;;;3.77;51.08;100498.47;5090861;28;20396;-76
2024/01/14 08:30:05;;;;;;;51.58;27.55;;;;;;;3.88;50.72;100489.03;5090622;28;20517;-73
2024/01/14 08:32:30;;;;;;;45.05;25.42;;;;;;;3.80;50.99;100466.38;5087781;28;20071;-74
2024/01/14 08:34:56;;;;;;;55.42;27.77;;;;;;;4.11;50.90;100481.47;5089938;28;20125;-76
2024/01/14 08:37:22;;;;;;;54.13;25.75;;;;;;;4.34;50.36;100488.16;5087835;28;20039;-75
2024/01/14 08:39:48;;;;;;;45.33;25.75;;;;;;;4.38;49.94;100474.53;5089828;28;20111;-74
2024/01/14 08:42:14;;;;;;;48.38;27.25;;;;;;;4.59;49.71;100479.53;5090296;28;20101;-76
2024/01/14 08:44:39;;;;;;;54.13;27.20;;;;;;;4.70;49.27;100475.31;5090495;28;20043;-77
2024/01/14 08:47:05;;;;;;;65.22;29.77;;;;;;;4.74;49.22;100455.53;5090097;28;20927;-75
2024/01/14 08:49:30;;;;;;;51.65;25.88;;;;;;;4.98;49.07;100466.53;5090748;28;20032;-75
2024/01/14 08:51:56;;;;;;;52.33;26.35;;;;;;;5.12;48.61;100469.19;5098818;28;20034;-76
2024/01/14 08:54:22;;;;;;;119.97;32.13;;;;;;;5.20;48.46;100447.41;5096147;28;20097;-73
2024/01/14 08:56:48;;;;;;;54.80;27.10;;;;;;;5.35;48.17;100452.63;5090443;28;20032;-75
2024/01/14 08:59:14;;;;;;;51.38;24.75;;;;;;;5.43;47.99;100439.69;5090143;28;20145;-75
2024/01/14 09:01:39;;;;;;;53.30;26.27;;;;;;;5.55;47.91;100437.16;5090245;28;20024;-74
2024/01/14 09:04:05;;;;;;;52.45;25.02;;;;;;;5.68;47.87;100432.78;5089526;28;20024;-74
2024/01/14 09:06:31;;;;;;;49.05;26.38;;;;;;;5.83;46.83;100432.66;5090171;28;20020;-75
2024/01/14 09:08:56;;;;;;;41.63;24.65;;;;;;;5.65;46.86;100408.97;5089915;28;20675;-76
2024/01/14 09:11:22;;;;;;;58.85;27.40;;;;;;;5.88;47.01;100424.34;5089980;28;20024;-74
2024/01/14 09:13:48;;;;;;;52.38;27.50;;;;;;;5.96;46.96;100435.41;5089597;28;20024;-75
2024/01/14 09:16:14;;;;;;;46.10;25.40;;;;;;;6.09;46.64;100422.09;5089788;28;20016;-73
2024/01/14 09:18:39;;;;;;;48.67;27.15;;;;;;;6.12;46.58;100406.72;5089575;28;20031;-74
2024/01/14 09:21:05;;;;;;;46.25;27.42;;;;;;;6.11;46.21;100393.50;5089644;28;20023;-77
2024/01/14 09:23:31;;;;;;;40.28;25.08;;;;;;;6.09;45.78;100395.38;5089089;28;20036;-75
2024/01/14 09:25:58;;;;;;;50.53;27.90;;;;;;;6.11;46.23;100414.84;5089753;28;20024;-74
2024/01/14 09:28:26;;;;;;;53.15;26.77;;;;;;;6.08;46.11;100407.03;5089868;28;20028;-74
2024/01/14 09:30:53;;;;;;;51.35;28.80;;;;;;;6.23;46.47;100409.53;5089922;28;20035;-73
2024/01/14 09:33:18;;;;;;;50.80;29.27;;;;;;;6.26;46.41;100405.81;5090469;28;20020;-73
2024/01/14 09:35:44;;;;;;;50.40;27.38;;;;;;;6.32;46.57;100397.38;5090275;28;20055;-75
2024/01/14 09:38:10;;;;;;;47.97;28.27;;;;;;;6.32;46.70;100400.91;5090479;28;20024;-76
2024/01/14 09:40:36;;;;;;;51.25;28.70;;;;;;;6.51;47.02;100395.19;5093880;28;20035;-75
2024/01/14 09:43:06;;;;;;;44.03;27.42;;;;;;;6.67;46.22;100382.47;5093194;28;20027;-76
2024/01/14 09:45:34;;;;;;;55.03;28.10;;;;;;;6.71;46.01;100367.06;5089211;28;20150;-74
2024/01/14 09:48:00;;;;;;;47.03;27.20;;;;;;;6.87;45.98;100367.72;5089378;28;20024;-76
2024/01/14 09:50:26;;;;;;;46.72;26.27;;;;;;;6.92;45.48;100322.81;5086404;28;20387;-76
2024/01/14 09:52:52;;;;;;;71.18;29.20;;;;;;;7.22;44.97;100360.72;5089024;28;20099;-75
2024/01/14 09:55:18;;;;;;;50.55;25.98;;;;;;;7.34;44.95;100351.81;5089370;28;20039;-76
2024/01/14 09:57:49;;;;;;;40.50;23.80;;;;;;;7.42;44.12;100343.22;5089956;28;20087;-74
2024/01/14 10:00:14;;;;;;;35.45;22.30;;;;;;;7.35;43.92;100318.75;5088828;28;20028;-75
2024/01/14 10:02:40;;;;;;;40.22;21.13;;;;;;;7.20;43.01;100332.38;5089007;28;20674;-75
2024/01/14 10:05:07;;;;;;;34.53;20.13;;;;;;;7.17;43.50;100322.75;5089616;28;20115;-74
2024/01/14 10:07:33;;;;;;;34.00;19.70;;;;;;;7.22;43.60;100333.97;5089290;28;20024;-74
2024/01/14 10:09:59;;;;;;;38.42;20.98;;;;;;;7.34;43.62;100309.00;5089211;28;20063;-74
2024/01/14 10:12:26;;;;;;;34.78;19.63;;;;;;;7.32;43.58;100294.03;5089119;28;20055;-75
2024/01/14 10:15:02;;;;;;;40.17;21.35;;;;;;;7.21;43.01;100294.84;5088955;28;20035;-73
2024/01/14 10:17:29;;;;;;;29.92;17.70;;;;;;;7.19;42.37;100295.88;5089581;28;20028;-75
2024/01/14 10:19:58;;;;;;;32.80;17.30;;;;;;;7.16;42.61;100282.75;5089359;28;20524;-74
2024/01/14 10:22:27;;;;;;;27.83;15.95;;;;;;;7.30;41.74;100307.53;5089585;28;20099;-74
2024/01/14 10:24:54;;;;;;;28.65;16.27;;;;;;;7.28;41.65;100304.09;5089707;28;20032;-75
2024/01/14 10:27:21;;;;;;;28.98;16.95;;;;;;;7.27;42.17;100306.91;5092798;28;20028;-77
2024/01/14 10:29:48;;;;;;;30.70;16.80;;;;;;;7.39;41.91;100298.84;5095132;28;20043;-74
2024/01/14 10:32:14;;;;;;;33.13;15.70;;;;;;;7.44;41.39;100295.81;5088811;28;20032;-73
2024/01/14 10:34:41;;;;;;;31.70;16.27;;;;;;;7.48;41.33;100276.75;5088127;28;20081;-73
2024/01/14 10:37:07;;;;;;;22.00;14.48;;;;;;;7.61;41.59;100280.19;5088735;28;20028;-74
2024/01/14 10:39:33;;;;;;;27.45;15.82;;;;;;;7.75;40.96;100281.84;5088340;28;20024;-75
2024/01/14 10:42:00;;;;;;;38.22;14.68;;;;;;;7.92;39.94;100278.75;5088481;28;20077;-75
2024/01/14 10:44:25;;;;;;;38.15;15.02;;;;;;;7.95;39.74;100270.47;5088208;28;20085;-75
2024/01/14 10:46:53;;;;;;;32.92;17.60;;;;;;;7.99;40.13;100260.41;5088756;28;20024;-77
2024/01/14 10:49:25;;;;;;;26.35;15.95;;;;;;;7.91;39.63;100234.22;5088344;28;20161;-74
2024/01/14 10:52:00;;;;;;;21.50;14.18;;;;;;;8.07;39.96;100253.47;5088333;28;20107;-76
2024/01/14 10:54:53;;;;;;;26.17;15.45;;;;;;;8.04;39.43;100258.25;5085675;28;20119;-76
2024/01/14 10:57:28;;;;;;;26.17;14.13;;;;;;;8.15;39.96;100258.25;5088379;28;20020;-74
2024/01/14 10:59:57;;;;;;;23.20;14.75;;;;;;;8.11;39.35;100251.41;5087885;28;20456;-74
2024/01/14 11:02:27;;;;;;;32.63;19.30;;;;;;;8.17;39.48;100250.94;5088028;28;20028;-75
2024/01/14 11:04:54;;;;;;;31.38;16.15;;;;;;;8.04;39.89;100245.69;5088060;28;20024;-75
2024/01/14 11:07:22;;;;;;;25.27;16.65;;;;;;;8.12;40.35;100247.78;5088547;28;20124;-75
2024/01/14 11:09:50;;;;;;;24.80;15.20;;;;;;;8.17;40.21;100248.25;5088558;28;20407;-74
2024/01/14 11:12:21;;;;;;;27.88;15.90;;;;;;;8.28;39.76;100242.13;5088524;28;20533;-74